sensor_id;sensor_type;location;lat;lon;timestamp;temperature;humidity
27647;DHT22;42229;51.230;6.240;2023-01-10T00:02:11;7.90;99.90
27647;DHT22;42229;51.230;6.240;2023-01-10T00:04:37;7.90;99.90
27647;DHT22;42229;51.230;6.240;2023-01-10T00:07:03;8.00;99.90
27647;DHT22;42229;51.230;6.240;2023-01-10T00:09:30;8.00;99.90
27647;DHT22;42229;51.230;6.240;2023-01-10T00:11:56;8.00;99.90
27647;DHT22;42229;51.230;6.240;2023-01-10T00:14:41;8.00;99.90
27647;DHT22;42229;51.230;6.240;2023-01-10T00:17:07;8.10;99.90
27647;DHT22;42229;51.230;6.240;2023-01-10T00:19:33;8.10;99.90
27647;DHT22;42229;51.230;6.240;2023-01-10T00:21:59;8.10;99.90
27647;DHT22;42229;51.230;6.240;2023-01-10T00:24:30;8.10;99.90
27647;DHT22;42229;51.230;6.240;2023-01-10T00:26:57;8.20;99.90
27647;DHT22;42229;51.230;6.240;2023-01-10T00:29:28;8.20;99.90
27647;DHT22;42229;51.230;6.240;2023-01-10T00:31:56;8.20;99.90
27647;DHT22;42229;51.230;6.240;2023-01-10T00:34:22;8.10;99.90
27647;DHT22;42229;51.230;6.240;2023-01-10T00:36:48;8.10;99.90
27647;DHT22;42229;51.230;6.240;2023-01-10T00:39:15;8.10;99.90
27647;DHT22;42229;51.230;6.240;2023-01-10T00:41:44;8.20;99.90
27647;DHT22;42229;51.230;6.240;2023-01-10T00:44:28;8.10;99.90
27647;DHT22;42229;51.230;6.240;2023-01-10T00:46:55;8.10;99.90
27647;DHT22;42229;51.230;6.240;2023-01-10T00:49:21;8.10;99.90
27647;DHT22;42229;51.230;6.240;2023-01-10T00:51:47;8.10;99.90
27647;DHT22;42229;51.230;6.240;2023-01-10T00:54:14;8.10;99.90
27647;DHT22;42229;51.230;6.240;2023-01-10T00:56:40;8.00;99.90
27647;DHT22;42229;51.230;6.240;2023-01-10T00:59:06;8.00;99.90
27647;DHT22;42229;51.230;6.240;2023-01-10T01:01:33;8.00;99.90
27647;DHT22;42229;51.230;6.240;2023-01-10T01:03:59;8.00;99.90
27647;DHT22;42229;51.230;6.240;2023-01-10T01:06:25;7.90;99.90
27647;DHT22;42229;51.230;6.240;2023-01-10T01:08:52;7.80;99.90
27647;DHT22;42229;51.230;6.240;2023-01-10T01:11:18;7.80;99.90
27647;DHT22;42229;51.230;6.240;2023-01-10T01:13:44;7.80;99.90
27647;DHT22;42229;51.230;6.240;2023-01-10T01:16:10;7.70;99.90
27647;DHT22;42229;51.230;6.240;2023-01-10T01:18:36;7.70;99.90
27647;DHT22;42229;51.230;6.240;2023-01-10T01:21:03;7.60;99.90
27647;DHT22;42229;51.230;6.240;2023-01-10T01:23:32;7.60;99.90
27647;DHT22;42229;51.230;6.240;2023-01-10T01:25:58;7.60;99.90
27647;DHT22;42229;51.230;6.240;2023-01-10T01:28:25;7.60;99.90
27647;DHT22;42229;51.230;6.240;2023-01-10T01:30:51;7.50;99.90
27647;DHT22;42229;51.230;6.240;2023-01-10T01:33:18;7.50;99.90
27647;DHT22;42229;51.230;6.240;2023-01-10T01:35:45;7.40;99.90
27647;DHT22;42229;51.230;6.240;2023-01-10T01:38:12;7.40;99.90
27647;DHT22;42229;51.230;6.240;2023-01-10T01:40:39;7.30;99.90
27647;DHT22;42229;51.230;6.240;2023-01-10T01:43:23;7.30;99.90
27647;DHT22;42229;51.230;6.240;2023-01-10T01:45:51;7.30;99.90
27647;DHT22;42229;51.230;6.240;2023-01-10T01:48:26;7.20;99.90
27647;DHT22;42229;51.230;6.240;2023-01-10T01:53:31;7.20;99.90
27647;DHT22;42229;51.230;6.240;2023-01-10T01:56:02;7.10;99.90
27647;DHT22;42229;51.230;6.240;2023-01-10T01:58:38;7.10;99.90
27647;DHT22;42229;51.230;6.240;2023-01-10T02:01:08;7.10;99.90
27647;DHT22;42229;51.230;6.240;2023-01-10T02:03:36;7.10;99.90
27647;DHT22;42229;51.230;6.240;2023-01-10T02:06:02;7.00;99.90
27647;DHT22;42229;51.230;6.240;2023-01-10T02:08:29;7.00;99.90
27647;DHT22;42229;51.230;6.240;2023-01-10T02:11:01;7.00;99.90
27647;DHT22;42229;51.230;6.240;2023-01-10T02:13:41;7.00;99.90
27647;DHT22;42229;51.230;6.240;2023-01-10T02:16:09;7.00;99.90
27647;DHT22;42229;51.230;6.240;2023-01-10T02:18:36;7.00;99.90
27647;DHT22;42229;51.230;6.240;2023-01-10T02:26:51;7.00;99.90
27647;DHT22;42229;51.230;6.240;2023-01-10T02:33:03;7.00;99.90
27647;DHT22;42229;51.230;6.240;2023-01-10T02:36:02;7.00;99.90
27647;DHT22;42229;51.230;6.240;2023-01-10T02:38:37;6.90;99.90
27647;DHT22;42229;51.230;6.240;2023-01-10T02:43:45;6.90;99.90
27647;DHT22;42229;51.230;6.240;2023-01-10T02:46:17;6.90;99.90
27647;DHT22;42229;51.230;6.240;2023-01-10T02:48:53;6.90;99.90
27647;DHT22;42229;51.230;6.240;2023-01-10T02:51:24;6.90;99.90
27647;DHT22;42229;51.230;6.240;2023-01-10T02:53:55;6.80;99.90
27647;DHT22;42229;51.230;6.240;2023-01-10T03:01:52;6.80;99.90
27647;DHT22;42229;51.230;6.240;2023-01-10T03:09:43;6.80;99.90
27647;DHT22;42229;51.230;6.240;2023-01-10T03:12:37;6.80;99.90
27647;DHT22;42229;51.230;6.240;2023-01-10T03:15:20;6.80;99.90
27647;DHT22;42229;51.230;6.240;2023-01-10T03:17:49;6.80;99.90
27647;DHT22;42229;51.230;6.240;2023-01-10T03:20:17;6.80;99.90
27647;DHT22;42229;51.230;6.240;2023-01-10T03:22:44;6.80;99.90
27647;DHT22;42229;51.230;6.240;2023-01-10T03:25:12;6.80;99.90
27647;DHT22;42229;51.230;6.240;2023-01-10T03:27:57;6.80;99.90
27647;DHT22;42229;51.230;6.240;2023-01-10T03:30:27;6.80;99.90
27647;DHT22;42229;51.230;6.240;2023-01-10T03:32:57;6.80;99.90
27647;DHT22;42229;51.230;6.240;2023-01-10T03:35:39;6.90;99.90
27647;DHT22;42229;51.230;6.240;2023-01-10T03:38:16;6.80;99.90
27647;DHT22;42229;51.230;6.240;2023-01-10T03:40:49;6.90;99.90
27647;DHT22;42229;51.230;6.240;2023-01-10T03:43:20;6.90;99.90
27647;DHT22;42229;51.230;6.240;2023-01-10T03:46:21;6.90;99.90
27647;DHT22;42229;51.230;6.240;2023-01-10T03:48:52;7.00;99.90
27647;DHT22;42229;51.230;6.240;2023-01-10T03:51:18;7.00;99.90
27647;DHT22;42229;51.230;6.240;2023-01-10T03:53:45;7.00;99.90
27647;DHT22;42229;51.230;6.240;2023-01-10T03:56:12;7.10;99.90
27647;DHT22;42229;51.230;6.240;2023-01-10T03:58:39;7.10;99.90
27647;DHT22;42229;51.230;6.240;2023-01-10T04:01:05;7.10;99.90
27647;DHT22;42229;51.230;6.240;2023-01-10T04:03:32;7.10;99.90
27647;DHT22;42229;51.230;6.240;2023-01-10T04:05:58;7.20;99.90
27647;DHT22;42229;51.230;6.240;2023-01-10T04:08:24;7.20;99.90
27647;DHT22;42229;51.230;6.240;2023-01-10T04:10:50;7.30;99.90
27647;DHT22;42229;51.230;6.240;2023-01-10T04:13:17;7.30;99.90
27647;DHT22;42229;51.230;6.240;2023-01-10T04:15:43;7.30;99.90
27647;DHT22;42229;51.230;6.240;2023-01-10T04:18:09;7.30;99.90
27647;DHT22;42229;51.230;6.240;2023-01-10T04:20:35;7.40;99.90
27647;DHT22;42229;51.230;6.240;2023-01-10T04:23:01;7.40;99.90
27647;DHT22;42229;51.230;6.240;2023-01-10T04:25:28;7.40;99.90
27647;DHT22;42229;51.230;6.240;2023-01-10T04:27:54;7.40;99.90
27647;DHT22;42229;51.230;6.240;2023-01-10T04:30:20;7.30;99.90
27647;DHT22;42229;51.230;6.240;2023-01-10T04:32:46;7.30;99.90
27647;DHT22;42229;51.230;6.240;2023-01-10T04:35:13;7.30;99.90
27647;DHT22;42229;51.230;6.240;2023-01-10T04:37:39;7.20;99.90
27647;DHT22;42229;51.230;6.240;2023-01-10T04:40:05;7.20;99.90
27647;DHT22;42229;51.230;6.240;2023-01-10T04:42:32;7.20;99.90
27647;DHT22;42229;51.230;6.240;2023-01-10T04:44:58;7.10;99.90
27647;DHT22;42229;51.230;6.240;2023-01-10T04:47:24;7.10;99.90
27647;DHT22;42229;51.230;6.240;2023-01-10T04:49:50;7.10;99.90
27647;DHT22;42229;51.230;6.240;2023-01-10T04:52:17;7.10;99.90
27647;DHT22;42229;51.230;6.240;2023-01-10T04:54:43;7.00;99.90
27647;DHT22;42229;51.230;6.240;2023-01-10T04:57:09;7.00;99.90
27647;DHT22;42229;51.230;6.240;2023-01-10T04:59:35;7.00;99.90
27647;DHT22;42229;51.230;6.240;2023-01-10T05:02:01;7.00;99.90
27647;DHT22;42229;51.230;6.240;2023-01-10T05:04:28;7.00;99.90
27647;DHT22;42229;51.230;6.240;2023-01-10T05:06:54;6.90;99.90
27647;DHT22;42229;51.230;6.240;2023-01-10T05:09:22;6.90;99.90
27647;DHT22;42229;51.230;6.240;2023-01-10T05:11:48;6.90;99.90
27647;DHT22;42229;51.230;6.240;2023-01-10T05:14:15;6.90;99.90
27647;DHT22;42229;51.230;6.240;2023-01-10T05:16:41;6.80;99.90
27647;DHT22;42229;51.230;6.240;2023-01-10T05:19:07;6.80;99.90
27647;DHT22;42229;51.230;6.240;2023-01-10T05:21:33;6.80;99.90
27647;DHT22;42229;51.230;6.240;2023-01-10T05:23:59;6.80;99.90
27647;DHT22;42229;51.230;6.240;2023-01-10T05:26:26;6.80;99.90
27647;DHT22;42229;51.230;6.240;2023-01-10T05:28:52;6.80;99.90
27647;DHT22;42229;51.230;6.240;2023-01-10T05:31:18;6.70;99.90
27647;DHT22;42229;51.230;6.240;2023-01-10T05:33:45;6.70;99.90
27647;DHT22;42229;51.230;6.240;2023-01-10T05:36:12;6.70;99.90
27647;DHT22;42229;51.230;6.240;2023-01-10T05:38:39;6.70;99.90
27647;DHT22;42229;51.230;6.240;2023-01-10T05:41:05;6.70;99.90
27647;DHT22;42229;51.230;6.240;2023-01-10T05:43:31;6.60;99.90
27647;DHT22;42229;51.230;6.240;2023-01-10T05:45:57;6.60;99.90
27647;DHT22;42229;51.230;6.240;2023-01-10T05:48:23;6.60;99.90
27647;DHT22;42229;51.230;6.240;2023-01-10T05:50:50;6.60;99.90
27647;DHT22;42229;51.230;6.240;2023-01-10T05:53:17;6.50;99.90
27647;DHT22;42229;51.230;6.240;2023-01-10T05:55:43;6.50;99.90
27647;DHT22;42229;51.230;6.240;2023-01-10T05:58:16;6.50;99.90
27647;DHT22;42229;51.230;6.240;2023-01-10T06:00:43;6.50;99.90
27647;DHT22;42229;51.230;6.240;2023-01-10T06:03:09;6.50;99.90
27647;DHT22;42229;51.230;6.240;2023-01-10T06:05:35;6.50;99.90
27647;DHT22;42229;51.230;6.240;2023-01-10T06:08:01;6.50;99.90
27647;DHT22;42229;51.230;6.240;2023-01-10T06:10:27;6.50;99.90
27647;DHT22;42229;51.230;6.240;2023-01-10T06:12:54;6.50;99.90
27647;DHT22;42229;51.230;6.240;2023-01-10T06:15:20;6.50;99.90
27647;DHT22;42229;51.230;6.240;2023-01-10T06:17:46;6.50;99.90
27647;DHT22;42229;51.230;6.240;2023-01-10T06:20:12;6.50;99.90
27647;DHT22;42229;51.230;6.240;2023-01-10T06:22:42;6.50;99.90
27647;DHT22;42229;51.230;6.240;2023-01-10T06:25:09;6.50;99.90
27647;DHT22;42229;51.230;6.240;2023-01-10T06:27:40;6.50;99.90
27647;DHT22;42229;51.230;6.240;2023-01-10T06:30:07;6.60;99.90
27647;DHT22;42229;51.230;6.240;2023-01-10T06:32:35;6.70;99.90
27647;DHT22;42229;51.230;6.240;2023-01-10T06:35:02;6.70;99.90
27647;DHT22;42229;51.230;6.240;2023-01-10T06:37:29;6.80;99.90
27647;DHT22;42229;51.230;6.240;2023-01-10T06:39:55;6.80;99.90
27647;DHT22;42229;51.230;6.240;2023-01-10T06:42:21;6.80;99.90
27647;DHT22;42229;51.230;6.240;2023-01-10T06:44:48;6.80;99.90
27647;DHT22;42229;51.230;6.240;2023-01-10T06:47:14;6.80;99.90
27647;DHT22;42229;51.230;6.240;2023-01-10T06:49:40;6.80;99.90
27647;DHT22;42229;51.230;6.240;2023-01-10T06:52:06;6.80;99.90
27647;DHT22;42229;51.230;6.240;2023-01-10T06:54:32;6.90;99.90
27647;DHT22;42229;51.230;6.240;2023-01-10T06:56:59;6.90;99.90
27647;DHT22;42229;51.230;6.240;2023-01-10T06:59:25;6.90;99.90
27647;DHT22;42229;51.230;6.240;2023-01-10T07:01:51;6.90;99.90
27647;DHT22;42229;51.230;6.240;2023-01-10T07:04:17;6.90;99.90
27647;DHT22;42229;51.230;6.240;2023-01-10T07:06:44;6.90;99.90
27647;DHT22;42229;51.230;6.240;2023-01-10T07:09:10;6.80;99.90
27647;DHT22;42229;51.230;6.240;2023-01-10T07:11:36;6.80;99.90
27647;DHT22;42229;51.230;6.240;2023-01-10T07:14:02;6.80;99.90
27647;DHT22;42229;51.230;6.240;2023-01-10T07:16:29;6.80;99.90
27647;DHT22;42229;51.230;6.240;2023-01-10T07:18:55;6.70;99.90
27647;DHT22;42229;51.230;6.240;2023-01-10T07:21:21;6.70;99.90
27647;DHT22;42229;51.230;6.240;2023-01-10T07:23:48;6.70;99.90
27647;DHT22;42229;51.230;6.240;2023-01-10T07:26:17;6.70;99.90
27647;DHT22;42229;51.230;6.240;2023-01-10T07:28:46;6.60;99.90
27647;DHT22;42229;51.230;6.240;2023-01-10T07:31:15;6.70;99.90
27647;DHT22;42229;51.230;6.240;2023-01-10T07:33:42;6.60;99.90
27647;DHT22;42229;51.230;6.240;2023-01-10T07:36:09;6.60;99.90
27647;DHT22;42229;51.230;6.240;2023-01-10T07:38:36;6.60;99.90
27647;DHT22;42229;51.230;6.240;2023-01-10T07:41:02;6.60;99.90
27647;DHT22;42229;51.230;6.240;2023-01-10T07:43:29;6.60;99.90
27647;DHT22;42229;51.230;6.240;2023-01-10T07:46:03;6.50;99.90
27647;DHT22;42229;51.230;6.240;2023-01-10T07:48:32;6.50;99.90
27647;DHT22;42229;51.230;6.240;2023-01-10T07:50:59;6.50;99.90
27647;DHT22;42229;51.230;6.240;2023-01-10T07:53:26;6.50;99.90
27647;DHT22;42229;51.230;6.240;2023-01-10T07:55:53;6.40;99.90
27647;DHT22;42229;51.230;6.240;2023-01-10T07:58:24;6.40;99.90
27647;DHT22;42229;51.230;6.240;2023-01-10T08:00:51;6.40;99.90
27647;DHT22;42229;51.230;6.240;2023-01-10T08:03:17;6.40;99.90
27647;DHT22;42229;51.230;6.240;2023-01-10T08:05:43;6.40;99.90
27647;DHT22;42229;51.230;6.240;2023-01-10T08:08:10;6.30;99.90
27647;DHT22;42229;51.230;6.240;2023-01-10T08:10:37;6.30;99.90
27647;DHT22;42229;51.230;6.240;2023-01-10T08:13:04;6.30;99.90
27647;DHT22;42229;51.230;6.240;2023-01-10T08:15:30;6.30;99.90
27647;DHT22;42229;51.230;6.240;2023-01-10T08:18:00;6.30;99.90
27647;DHT22;42229;51.230;6.240;2023-01-10T08:20:27;6.40;99.90
27647;DHT22;42229;51.230;6.240;2023-01-10T08:22:57;6.40;99.90
27647;DHT22;42229;51.230;6.240;2023-01-10T08:25:25;6.40;99.90
27647;DHT22;42229;51.230;6.240;2023-01-10T08:27:51;6.40;99.90
27647;DHT22;42229;51.230;6.240;2023-01-10T08:30:18;6.40;99.90
27647;DHT22;42229;51.230;6.240;2023-01-10T08:32:44;6.40;99.90
27647;DHT22;42229;51.230;6.240;2023-01-10T08:35:10;6.40;99.90
27647;DHT22;42229;51.230;6.240;2023-01-10T08:37:37;6.40;99.90
27647;DHT22;42229;51.230;6.240;2023-01-10T08:40:03;6.50;99.90
27647;DHT22;42229;51.230;6.240;2023-01-10T08:42:29;6.50;99.90
27647;DHT22;42229;51.230;6.240;2023-01-10T08:44:56;6.60;99.90
27647;DHT22;42229;51.230;6.240;2023-01-10T08:47:22;6.60;99.90
27647;DHT22;42229;51.230;6.240;2023-01-10T08:49:48;6.60;99.90
27647;DHT22;42229;51.230;6.240;2023-01-10T08:52:15;6.70;99.90
27647;DHT22;42229;51.230;6.240;2023-01-10T08:54:41;6.70;99.90
27647;DHT22;42229;51.230;6.240;2023-01-10T08:57:08;6.80;99.90
27647;DHT22;42229;51.230;6.240;2023-01-10T08:59:34;6.80;99.90
27647;DHT22;42229;51.230;6.240;2023-01-10T09:02:00;6.90;99.90
27647;DHT22;42229;51.230;6.240;2023-01-10T09:04:26;6.90;99.90
27647;DHT22;42229;51.230;6.240;2023-01-10T09:06:54;7.00;99.90
27647;DHT22;42229;51.230;6.240;2023-01-10T09:09:21;7.10;99.90
27647;DHT22;42229;51.230;6.240;2023-01-10T09:11:47;7.20;99.90
27647;DHT22;42229;51.230;6.240;2023-01-10T09:14:14;7.20;99.90
27647;DHT22;42229;51.230;6.240;2023-01-10T09:16:40;7.30;99.90
27647;DHT22;42229;51.230;6.240;2023-01-10T09:19:06;7.40;99.90
27647;DHT22;42229;51.230;6.240;2023-01-10T09:21:33;7.50;99.90
27647;DHT22;42229;51.230;6.240;2023-01-10T09:23:59;7.60;99.90
27647;DHT22;42229;51.230;6.240;2023-01-10T09:26:25;7.60;99.90
27647;DHT22;42229;51.230;6.240;2023-01-10T09:28:54;7.60;99.90
27647;DHT22;42229;51.230;6.240;2023-01-10T09:31:20;7.70;99.90
27647;DHT22;42229;51.230;6.240;2023-01-10T09:33:46;7.70;99.90
27647;DHT22;42229;51.230;6.240;2023-01-10T09:36:14;7.80;99.90
27647;DHT22;42229;51.230;6.240;2023-01-10T09:38:40;7.80;99.90
27647;DHT22;42229;51.230;6.240;2023-01-10T09:44:05;7.90;99.90
27647;DHT22;42229;51.230;6.240;2023-01-10T09:51:40;8.10;99.90
27647;DHT22;42229;51.230;6.240;2023-01-10T09:54:27;8.10;99.90
27647;DHT22;42229;51.230;6.240;2023-01-10T09:56:57;8.20;99.90
27647;DHT22;42229;51.230;6.240;2023-01-10T09:59:25;8.20;99.90
27647;DHT22;42229;51.230;6.240;2023-01-10T10:01:58;8.30;99.90
27647;DHT22;42229;51.230;6.240;2023-01-10T10:04:36;8.30;99.90
27647;DHT22;42229;51.230;6.240;2023-01-10T10:07:02;8.40;99.90
27647;DHT22;42229;51.230;6.240;2023-01-10T10:09:29;8.40;99.90
27647;DHT22;42229;51.230;6.240;2023-01-10T10:12:08;8.50;99.90
27647;DHT22;42229;51.230;6.240;2023-01-10T10:26:12;8.70;99.90
27647;DHT22;42229;51.230;6.240;2023-01-10T10:29:12;8.70;99.90
27647;DHT22;42229;51.230;6.240;2023-01-10T10:34:56;8.70;99.90
27647;DHT22;42229;51.230;6.240;2023-01-10T10:37:27;8.80;99.90
27647;DHT22;42229;51.230;6.240;2023-01-10T10:40:00;8.80;99.90
27647;DHT22;42229;51.230;6.240;2023-01-10T10:42:30;8.80;99.90
27647;DHT22;42229;51.230;6.240;2023-01-10T10:47:31;8.90;99.90
27647;DHT22;42229;51.230;6.240;2023-01-10T10:50:17;9.00;99.90
27647;DHT22;42229;51.230;6.240;2023-01-10T10:52:50;9.00;99.90
27647;DHT22;42229;51.230;6.240;2023-01-10T10:55:17;9.00;99.90
27647;DHT22;42229;51.230;6.240;2023-01-10T10:57:52;9.00;99.90
27647;DHT22;42229;51.230;6.240;2023-01-10T11:00:19;9.10;99.90
27647;DHT22;42229;51.230;6.240;2023-01-10T11:02:49;9.20;99.90
27647;DHT22;42229;51.230;6.240;2023-01-10T11:05:22;9.20;99.90
27647;DHT22;42229;51.230;6.240;2023-01-10T11:07:58;9.20;99.90
27647;DHT22;42229;51.230;6.240;2023-01-10T11:10:26;9.20;99.90
27647;DHT22;42229;51.230;6.240;2023-01-10T11:15:38;9.30;99.90
27647;DHT22;42229;51.230;6.240;2023-01-10T11:18:11;9.40;99.90
27647;DHT22;42229;51.230;6.240;2023-01-10T11:20:55;9.40;99.90
27647;DHT22;42229;51.230;6.240;2023-01-10T11:26:26;9.50;99.90
27647;DHT22;42229;51.230;6.240;2023-01-10T11:28:54;9.50;99.90
27647;DHT22;42229;51.230;6.240;2023-01-10T11:31:28;9.60;99.90
27647;DHT22;42229;51.230;6.240;2023-01-10T11:33:55;9.60;99.90
27647;DHT22;42229;51.230;6.240;2023-01-10T11:36:22;9.60;99.90
27647;DHT22;42229;51.230;6.240;2023-01-10T11:38:58;9.70;99.90
27647;DHT22;42229;51.230;6.240;2023-01-10T11:41:27;9.70;99.90
27647;DHT22;42229;51.230;6.240;2023-01-10T11:44:15;9.80;99.90
27647;DHT22;42229;51.230;6.240;2023-01-10T11:46:44;9.90;99.90
27647;DHT22;42229;51.230;6.240;2023-01-10T11:49:15;9.90;99.90
27647;DHT22;42229;51.230;6.240;2023-01-10T11:51:48;10.00;99.90
27647;DHT22;42229;51.230;6.240;2023-01-10T11:54:16;10.10;99.90
27647;DHT22;42229;51.230;6.240;2023-01-10T11:57:03;10.10;99.90
27647;DHT22;42229;51.230;6.240;2023-01-10T11:59:33;10.10;99.90
27647;DHT22;42229;51.230;6.240;2023-01-10T12:02:16;10.20;99.90
27647;DHT22;42229;51.230;6.240;2023-01-10T12:04:50;10.20;99.90
27647;DHT22;42229;51.230;6.240;2023-01-10T12:07:17;10.20;99.90
27647;DHT22;42229;51.230;6.240;2023-01-10T12:09:57;10.20;99.90
27647;DHT22;42229;51.230;6.240;2023-01-10T12:12:26;10.30;99.90
27647;DHT22;42229;51.230;6.240;2023-01-10T12:15:21;10.30;99.90
27647;DHT22;42229;51.230;6.240;2023-01-10T12:17:56;10.30;99.90
27647;DHT22;42229;51.230;6.240;2023-01-10T12:20:25;10.40;99.90
27647;DHT22;42229;51.230;6.240;2023-01-10T12:22:54;10.40;99.90
27647;DHT22;42229;51.230;6.240;2023-01-10T12:25:36;10.40;99.90
27647;DHT22;42229;51.230;6.240;2023-01-10T12:28:03;10.40;99.90
27647;DHT22;42229;51.230;6.240;2023-01-10T12:30:56;10.40;99.90
27647;DHT22;42229;51.230;6.240;2023-01-10T12:33:27;10.50;99.90
27647;DHT22;42229;51.230;6.240;2023-01-10T12:35:58;10.50;99.90
27647;DHT22;42229;51.230;6.240;2023-01-10T12:38:28;10.50;99.90
27647;DHT22;42229;51.230;6.240;2023-01-10T12:41:18;10.50;99.90
27647;DHT22;42229;51.230;6.240;2023-01-10T12:44:11;10.60;99.90
27647;DHT22;42229;51.230;6.240;2023-01-10T12:49:28;10.60;99.90
27647;DHT22;42229;51.230;6.240;2023-01-10T12:52:01;10.60;99.90
27647;DHT22;42229;51.230;6.240;2023-01-10T12:54:30;10.70;99.90
27647;DHT22;42229;51.230;6.240;2023-01-10T12:57:05;10.70;99.90
27647;DHT22;42229;51.230;6.240;2023-01-10T12:59:42;10.70;99.90
27647;DHT22;42229;51.230;6.240;2023-01-10T13:02:17;10.70;99.90
27647;DHT22;42229;51.230;6.240;2023-01-10T13:04:46;10.70;99.90
27647;DHT22;42229;51.230;6.240;2023-01-10T13:07:16;10.70;99.90
27647;DHT22;42229;51.230;6.240;2023-01-10T13:09:43;10.80;99.90
27647;DHT22;42229;51.230;6.240;2023-01-10T13:12:32;10.80;99.90
27647;DHT22;42229;51.230;6.240;2023-01-10T13:17:46;10.80;99.90
27647;DHT22;42229;51.230;6.240;2023-01-10T13:22:49;10.90;99.90
27647;DHT22;42229;51.230;6.240;2023-01-10T13:25:27;10.80;99.90
27647;DHT22;42229;51.230;6.240;2023-01-10T13:28:18;10.90;99.90
27647;DHT22;42229;51.230;6.240;2023-01-10T13:30:52;10.90;99.90
27647;DHT22;42229;51.230;6.240;2023-01-10T13:33:30;10.80;99.90
27647;DHT22;42229;51.230;6.240;2023-01-10T13:36:08;10.80;99.90
27647;DHT22;42229;51.230;6.240;2023-01-10T13:38:38;10.80;99.90
27647;DHT22;42229;51.230;6.240;2023-01-10T13:41:12;10.80;99.90
27647;DHT22;42229;51.230;6.240;2023-01-10T13:46:33;10.80;99.90
27647;DHT22;42229;51.230;6.240;2023-01-10T13:51:31;10.80;99.90
27647;DHT22;42229;51.230;6.240;2023-01-10T13:56:37;10.80;99.90
27647;DHT22;42229;51.230;6.240;2023-01-10T13:59:13;10.70;99.90
27647;DHT22;42229;51.230;6.240;2023-01-10T14:02:22;10.80;99.90
27647;DHT22;42229;51.230;6.240;2023-01-10T14:04:59;10.70;99.90
27647;DHT22;42229;51.230;6.240;2023-01-10T14:07:28;10.70;99.90
27647;DHT22;42229;51.230;6.240;2023-01-10T14:10:06;10.70;99.90
27647;DHT22;42229;51.230;6.240;2023-01-10T14:12:36;10.60;99.90
27647;DHT22;42229;51.230;6.240;2023-01-10T14:15:07;10.60;99.90
27647;DHT22;42229;51.230;6.240;2023-01-10T14:18:01;10.60;99.90
27647;DHT22;42229;51.230;6.240;2023-01-10T14:20:29;10.70;99.90
27647;DHT22;42229;51.230;6.240;2023-01-10T14:25:41;10.60;99.90
27647;DHT22;42229;51.230;6.240;2023-01-10T14:28:16;10.60;99.90
27647;DHT22;42229;51.230;6.240;2023-01-10T14:30:45;10.60;99.90
27647;DHT22;42229;51.230;6.240;2023-01-10T14:33:23;10.60;99.90
27647;DHT22;42229;51.230;6.240;2023-01-10T14:35:50;10.50;99.90
27647;DHT22;42229;51.230;6.240;2023-01-10T14:38:30;10.50;99.90
27647;DHT22;42229;51.230;6.240;2023-01-10T14:41:01;10.40;99.90
27647;DHT22;42229;51.230;6.240;2023-01-10T14:43:38;10.40;99.90
27647;DHT22;42229;51.230;6.240;2023-01-10T14:46:21;10.40;99.90
27647;DHT22;42229;51.230;6.240;2023-01-10T14:48:51;10.40;99.90
27647;DHT22;42229;51.230;6.240;2023-01-10T14:51:22;10.40;99.90
27647;DHT22;42229;51.230;6.240;2023-01-10T14:53:56;10.30;99.90
27647;DHT22;42229;51.230;6.240;2023-01-10T14:56:52;10.30;99.90
27647;DHT22;42229;51.230;6.240;2023-01-10T15:01:50;10.20;99.90
27647;DHT22;42229;51.230;6.240;2023-01-10T15:04:19;10.10;99.90
27647;DHT22;42229;51.230;6.240;2023-01-10T15:06:57;10.00;99.90
27647;DHT22;42229;51.230;6.240;2023-01-10T15:09:28;9.90;99.90
27647;DHT22;42229;51.230;6.240;2023-01-10T15:11:59;9.80;99.90
27647;DHT22;42229;51.230;6.240;2023-01-10T15:14:27;9.80;99.90
27647;DHT22;42229;51.230;6.240;2023-01-10T15:16:55;9.70;99.90
27647;DHT22;42229;51.230;6.240;2023-01-10T15:19:22;9.60;99.90
27647;DHT22;42229;51.230;6.240;2023-01-10T15:21:49;9.50;99.90
27647;DHT22;42229;51.230;6.240;2023-01-10T15:24:22;9.50;99.90
27647;DHT22;42229;51.230;6.240;2023-01-10T15:26:52;9.40;99.90
27647;DHT22;42229;51.230;6.240;2023-01-10T15:29:24;9.30;99.90
27647;DHT22;42229;51.230;6.240;2023-01-10T15:31:52;9.30;99.90
27647;DHT22;42229;51.230;6.240;2023-01-10T15:34:21;9.20;99.90
27647;DHT22;42229;51.230;6.240;2023-01-10T15:36:53;9.20;99.90
27647;DHT22;42229;51.230;6.240;2023-01-10T15:39:22;9.10;99.90
27647;DHT22;42229;51.230;6.240;2023-01-10T15:41:54;9.10;99.90
27647;DHT22;42229;51.230;6.240;2023-01-10T15:44:22;9.10;99.90
27647;DHT22;42229;51.230;6.240;2023-01-10T15:46:53;9.10;99.90
27647;DHT22;42229;51.230;6.240;2023-01-10T15:49:22;9.10;99.90
27647;DHT22;42229;51.230;6.240;2023-01-10T15:51:51;9.00;99.90
27647;DHT22;42229;51.230;6.240;2023-01-10T15:56:51;9.00;99.90
27647;DHT22;42229;51.230;6.240;2023-01-10T16:01:55;9.00;99.90
27647;DHT22;42229;51.230;6.240;2023-01-10T16:04:23;9.00;99.90
27647;DHT22;42229;51.230;6.240;2023-01-10T16:06:51;8.90;99.90
27647;DHT22;42229;51.230;6.240;2023-01-10T16:09:20;8.90;99.90
27647;DHT22;42229;51.230;6.240;2023-01-10T16:11:49;8.90;99.90
27647;DHT22;42229;51.230;6.240;2023-01-10T16:14:35;8.90;99.90
27647;DHT22;42229;51.230;6.240;2023-01-10T16:17:03;8.90;99.90
27647;DHT22;42229;51.230;6.240;2023-01-10T16:19:29;8.90;99.90
27647;DHT22;42229;51.230;6.240;2023-01-10T16:21:56;8.80;99.90
27647;DHT22;42229;51.230;6.240;2023-01-10T16:24:27;8.80;99.90
27647;DHT22;42229;51.230;6.240;2023-01-10T16:26:55;8.80;99.90
27647;DHT22;42229;51.230;6.240;2023-01-10T16:29:22;8.80;99.90
27647;DHT22;42229;51.230;6.240;2023-01-10T16:31:49;8.80;99.90
27647;DHT22;42229;51.230;6.240;2023-01-10T16:34:16;8.80;99.90
27647;DHT22;42229;51.230;6.240;2023-01-10T16:36:43;8.80;99.90
27647;DHT22;42229;51.230;6.240;2023-01-10T16:39:11;8.80;99.90
27647;DHT22;42229;51.230;6.240;2023-01-10T16:41:40;8.80;99.90
27647;DHT22;42229;51.230;6.240;2023-01-10T16:44:26;8.70;99.90
27647;DHT22;42229;51.230;6.240;2023-01-10T16:46:52;8.70;99.90
27647;DHT22;42229;51.230;6.240;2023-01-10T16:49:19;8.70;99.90
27647;DHT22;42229;51.230;6.240;2023-01-10T16:51:46;8.70;99.90
27647;DHT22;42229;51.230;6.240;2023-01-10T16:54:17;8.60;99.90
27647;DHT22;42229;51.230;6.240;2023-01-10T16:56:45;8.60;99.90
27647;DHT22;42229;51.230;6.240;2023-01-10T16:59:12;8.60;99.90
27647;DHT22;42229;51.230;6.240;2023-01-10T17:01:40;8.60;99.90
27647;DHT22;42229;51.230;6.240;2023-01-10T17:04:10;8.60;99.90
27647;DHT22;42229;51.230;6.240;2023-01-10T17:06:37;8.50;99.90
27647;DHT22;42229;51.230;6.240;2023-01-10T17:09:06;8.50;99.90
27647;DHT22;42229;51.230;6.240;2023-01-10T17:11:35;8.50;99.90
27647;DHT22;42229;51.230;6.240;2023-01-10T17:14:03;8.50;99.90
27647;DHT22;42229;51.230;6.240;2023-01-10T17:16:30;8.50;99.90
27647;DHT22;42229;51.230;6.240;2023-01-10T17:18:56;8.50;99.90
27647;DHT22;42229;51.230;6.240;2023-01-10T17:21:23;8.40;99.90
27647;DHT22;42229;51.230;6.240;2023-01-10T17:23:49;8.40;99.90